sensor_id;sensor_type;location;lat;lon;timestamp;P1;durP1;ratioP1;P2;durP2;ratioP2
17714;SDS011;8977;50.902;4.314;2023-12-22T00:00:33;13.33;;;2.90;;
17714;SDS011;8977;50.902;4.314;2023-12-22T00:03:00;13.30;;;2.90;;
17714;SDS011;8977;50.902;4.314;2023-12-22T00:05:27;13.53;;;3.10;;
17714;SDS011;8977;50.902;4.314;2023-12-22T00:07:55;9.13;;;2.40;;
17714;SDS011;8977;50.902;4.314;2023-12-22T00:10:22;12.93;;;2.57;;
17714;SDS011;8977;50.902;4.314;2023-12-22T00:12:49;12.73;;;3.37;;
17714;SDS011;8977;50.902;4.314;2023-12-22T00:15:16;11.27;;;2.33;;
17714;SDS011;8977;50.902;4.314;2023-12-22T00:17:43;8.90;;;2.60;;
17714;SDS011;8977;50.902;4.314;2023-12-22T00:20:10;10.43;;;2.93;;
17714;SDS011;8977;50.902;4.314;2023-12-22T00:22:39;10.83;;;2.33;;
17714;SDS011;8977;50.902;4.314;2023-12-22T00:25:08;6.20;;;2.03;;
17714;SDS011;8977;50.902;4.314;2023-12-22T00:27:36;10.03;;;2.30;;
17714;SDS011;8977;50.902;4.314;2023-12-22T00:30:04;6.63;;;1.80;;
17714;SDS011;8977;50.902;4.314;2023-12-22T00:32:32;9.17;;;2.00;;
17714;SDS011;8977;50.902;4.314;2023-12-22T00:34:57;8.40;;;2.47;;
17714;SDS011;8977;50.902;4.314;2023-12-22T00:37:25;7.13;;;1.97;;
17714;SDS011;8977;50.902;4.314;2023-12-22T00:39:52;7.83;;;2.40;;
17714;SDS011;8977;50.902;4.314;2023-12-22T00:42:20;9.37;;;2.20;;
17714;SDS011;8977;50.902;4.314;2023-12-22T00:44:47;9.13;;;2.20;;
17714;SDS011;8977;50.902;4.314;2023-12-22T00:47:14;9.10;;;2.30;;
17714;SDS011;8977;50.902;4.314;2023-12-22T00:49:41;11.00;;;2.70;;
17714;SDS011;8977;50.902;4.314;2023-12-22T00:52:08;8.50;;;2.27;;
17714;SDS011;8977;50.902;4.314;2023-12-22T00:54:35;20.03;;;3.70;;
17714;SDS011;8977;50.902;4.314;2023-12-22T00:57:02;15.03;;;3.40;;
17714;SDS011;8977;50.902;4.314;2023-12-22T00:59:31;15.77;;;3.13;;
17714;SDS011;8977;50.902;4.314;2023-12-22T01:01:58;14.00;;;2.90;;
17714;SDS011;8977;50.902;4.314;2023-12-22T01:04:25;11.40;;;3.07;;
17714;SDS011;8977;50.902;4.314;2023-12-22T01:06:52;9.97;;;3.10;;
17714;SDS011;8977;50.902;4.314;2023-12-22T01:09:19;13.47;;;3.03;;
17714;SDS011;8977;50.902;4.314;2023-12-22T01:11:46;17.90;;;3.17;;
17714;SDS011;8977;50.902;4.314;2023-12-22T01:14:13;14.80;;;3.80;;
17714;SDS011;8977;50.902;4.314;2023-12-22T01:16:41;12.00;;;3.10;;
17714;SDS011;8977;50.902;4.314;2023-12-22T01:19:08;9.90;;;3.00;;
17714;SDS011;8977;50.902;4.314;2023-12-22T01:21:35;11.53;;;2.67;;
17714;SDS011;8977;50.902;4.314;2023-12-22T01:24:05;10.23;;;3.00;;
17714;SDS011;8977;50.902;4.314;2023-12-22T01:26:32;13.00;;;3.70;;
17714;SDS011;8977;50.902;4.314;2023-12-22T01:28:59;11.50;;;3.30;;
17714;SDS011;8977;50.902;4.314;2023-12-22T01:31:26;13.40;;;3.13;;
17714;SDS011;8977;50.902;4.314;2023-12-22T01:33:54;10.93;;;3.40;;
17714;SDS011;8977;50.902;4.314;2023-12-22T01:36:21;11.87;;;3.00;;
17714;SDS011;8977;50.902;4.314;2023-12-22T01:38:48;11.90;;;3.03;;
17714;SDS011;8977;50.902;4.314;2023-12-22T01:41:15;13.40;;;2.93;;
17714;SDS011;8977;50.902;4.314;2023-12-22T01:43:42;10.47;;;3.03;;
17714;SDS011;8977;50.902;4.314;2023-12-22T01:46:09;13.80;;;3.30;;
17714;SDS011;8977;50.902;4.314;2023-12-22T01:48:38;14.17;;;2.97;;
17714;SDS011;8977;50.902;4.314;2023-12-22T01:51:07;16.10;;;3.60;;
17714;SDS011;8977;50.902;4.314;2023-12-22T01:53:34;16.10;;;3.30;;
17714;SDS011;8977;50.902;4.314;2023-12-22T01:56:02;13.57;;;2.97;;
17714;SDS011;8977;50.902;4.314;2023-12-22T01:58:30;13.70;;;3.20;;
17714;SDS011;8977;50.902;4.314;2023-12-22T02:01:00;17.53;;;3.80;;
17714;SDS011;8977;50.902;4.314;2023-12-22T02:03:28;12.73;;;3.13;;
17714;SDS011;8977;50.902;4.314;2023-12-22T02:05:55;13.60;;;3.73;;
17714;SDS011;8977;50.902;4.314;2023-12-22T02:08:23;14.40;;;3.20;;
17714;SDS011;8977;50.902;4.314;2023-12-22T02:10:55;14.50;;;3.50;;
17714;SDS011;8977;50.902;4.314;2023-12-22T02:13:22;14.90;;;3.20;;
17714;SDS011;8977;50.902;4.314;2023-12-22T02:15:50;16.53;;;3.47;;
17714;SDS011;8977;50.902;4.314;2023-12-22T02:18:26;12.93;;;3.33;;
17714;SDS011;8977;50.902;4.314;2023-12-22T02:20:59;14.93;;;3.77;;
17714;SDS011;8977;50.902;4.314;2023-12-22T02:23:28;12.00;;;2.93;;
17714;SDS011;8977;50.902;4.314;2023-12-22T02:25:56;15.57;;;4.20;;
17714;SDS011;8977;50.902;4.314;2023-12-22T02:28:30;13.83;;;3.87;;
17714;SDS011;8977;50.902;4.314;2023-12-22T02:31:01;11.97;;;2.87;;
17714;SDS011;8977;50.902;4.314;2023-12-22T02:33:35;11.77;;;3.00;;
17714;SDS011;8977;50.902;4.314;2023-12-22T02:36:05;10.30;;;2.30;;
17714;SDS011;8977;50.902;4.314;2023-12-22T02:38:36;13.83;;;3.10;;
17714;SDS011;8977;50.902;4.314;2023-12-22T02:41:05;11.47;;;2.60;;
17714;SDS011;8977;50.902;4.314;2023-12-22T02:43:32;10.20;;;2.47;;
17714;SDS011;8977;50.902;4.314;2023-12-22T02:46:00;7.53;;;2.00;;
17714;SDS011;8977;50.902;4.314;2023-12-22T02:48:27;10.10;;;2.57;;
17714;SDS011;8977;50.902;4.314;2023-12-22T02:50:54;5.77;;;1.83;;
17714;SDS011;8977;50.902;4.314;2023-12-22T02:53:21;6.23;;;1.97;;
17714;SDS011;8977;50.902;4.314;2023-12-22T02:55:49;5.83;;;1.80;;
17714;SDS011;8977;50.902;4.314;2023-12-22T02:58:16;8.57;;;2.23;;
17714;SDS011;8977;50.902;4.314;2023-12-22T03:00:43;9.57;;;1.90;;
17714;SDS011;8977;50.902;4.314;2023-12-22T03:03:11;6.40;;;2.07;;
17714;SDS011;8977;50.902;4.314;2023-12-22T03:05:38;9.67;;;2.00;;
17714;SDS011;8977;50.902;4.314;2023-12-22T03:08:05;8.00;;;1.87;;
17714;SDS011;8977;50.902;4.314;2023-12-22T03:10:35;9.25;;;2.42;;
17714;SDS011;8977;50.902;4.314;2023-12-22T03:13:03;12.13;;;2.80;;
17714;SDS011;8977;50.902;4.314;2023-12-22T03:15:30;8.10;;;2.00;;
17714;SDS011;8977;50.902;4.314;2023-12-22T03:17:57;9.50;;;2.33;;
17714;SDS011;8977;50.902;4.314;2023-12-22T03:20:24;14.13;;;2.40;;
17714;SDS011;8977;50.902;4.314;2023-12-22T03:22:51;9.57;;;2.60;;
17714;SDS011;8977;50.902;4.314;2023-12-22T03:25:17;16.90;;;3.23;;
17714;SDS011;8977;50.902;4.314;2023-12-22T03:27:47;11.90;;;2.80;;
17714;SDS011;8977;50.902;4.314;2023-12-22T03:30:15;13.37;;;3.40;;
17714;SDS011;8977;50.902;4.314;2023-12-22T03:32:42;15.80;;;3.23;;
17714;SDS011;8977;50.902;4.314;2023-12-22T03:35:09;12.03;;;3.17;;
17714;SDS011;8977;50.902;4.314;2023-12-22T03:37:36;13.10;;;3.70;;
17714;SDS011;8977;50.902;4.314;2023-12-22T03:40:03;9.73;;;3.03;;
17714;SDS011;8977;50.902;4.314;2023-12-22T03:42:30;13.90;;;3.00;;
17714;SDS011;8977;50.902;4.314;2023-12-22T03:44:57;11.27;;;2.83;;
17714;SDS011;8977;50.902;4.314;2023-12-22T03:47:26;12.87;;;2.93;;
17714;SDS011;8977;50.902;4.314;2023-12-22T03:49:56;10.87;;;2.83;;
17714;SDS011;8977;50.902;4.314;2023-12-22T03:52:23;13.40;;;3.13;;
17714;SDS011;8977;50.902;4.314;2023-12-22T03:54:50;9.57;;;2.33;;
17714;SDS011;8977;50.902;4.314;2023-12-22T03:57:17;11.27;;;2.60;;
17714;SDS011;8977;50.902;4.314;2023-12-22T03:59:44;10.93;;;2.80;;
17714;SDS011;8977;50.902;4.314;2023-12-22T04:02:10;12.73;;;3.20;;
17714;SDS011;8977;50.902;4.314;2023-12-22T04:04:40;8.77;;;2.77;;
17714;SDS011;8977;50.902;4.314;2023-12-22T04:07:07;10.97;;;2.70;;
17714;SDS011;8977;50.902;4.314;2023-12-22T04:09:36;10.70;;;2.80;;
17714;SDS011;8977;50.902;4.314;2023-12-22T04:14:33;15.87;;;2.93;;
17714;SDS011;8977;50.902;4.314;2023-12-22T04:17:00;14.57;;;3.43;;
17714;SDS011;8977;50.902;4.314;2023-12-22T04:19:27;18.07;;;3.83;;
17714;SDS011;8977;50.902;4.314;2023-12-22T04:21:55;15.87;;;3.63;;
17714;SDS011;8977;50.902;4.314;2023-12-22T04:24:22;16.87;;;3.83;;
17714;SDS011;8977;50.902;4.314;2023-12-22T04:26:49;12.83;;;3.17;;
17714;SDS011;8977;50.902;4.314;2023-12-22T04:29:16;14.03;;;3.53;;
17714;SDS011;8977;50.902;4.314;2023-12-22T04:31:43;17.60;;;3.73;;
17714;SDS011;8977;50.902;4.314;2023-12-22T04:34:11;13.70;;;3.60;;
17714;SDS011;8977;50.902;4.314;2023-12-22T04:36:39;14.80;;;3.53;;
17714;SDS011;8977;50.902;4.314;2023-12-22T04:39:08;13.43;;;4.10;;
17714;SDS011;8977;50.902;4.314;2023-12-22T04:41:34;18.17;;;3.73;;
17714;SDS011;8977;50.902;4.314;2023-12-22T04:44:01;19.13;;;4.63;;
17714;SDS011;8977;50.902;4.314;2023-12-22T04:46:31;15.83;;;3.90;;
17714;SDS011;8977;50.902;4.314;2023-12-22T04:48:58;15.50;;;3.20;;
17714;SDS011;8977;50.902;4.314;2023-12-22T04:51:26;15.83;;;3.97;;
17714;SDS011;8977;50.902;4.314;2023-12-22T04:53:53;18.80;;;4.10;;
17714;SDS011;8977;50.902;4.314;2023-12-22T04:56:22;17.50;;;3.90;;
17714;SDS011;8977;50.902;4.314;2023-12-22T04:58:49;19.70;;;4.20;;
17714;SDS011;8977;50.902;4.314;2023-12-22T05:01:16;17.50;;;3.97;;
17714;SDS011;8977;50.902;4.314;2023-12-22T05:03:44;16.83;;;3.77;;
17714;SDS011;8977;50.902;4.314;2023-12-22T05:06:11;13.93;;;4.30;;
17714;SDS011;8977;50.902;4.314;2023-12-22T05:08:38;18.30;;;5.03;;
17714;SDS011;8977;50.902;4.314;2023-12-22T05:11:05;21.40;;;4.70;;
17714;SDS011;8977;50.902;4.314;2023-12-22T05:13:33;18.20;;;4.23;;
17714;SDS011;8977;50.902;4.314;2023-12-22T05:16:00;18.73;;;4.83;;
17714;SDS011;8977;50.902;4.314;2023-12-22T05:18:27;15.43;;;4.17;;
17714;SDS011;8977;50.902;4.314;2023-12-22T05:20:55;19.37;;;4.97;;
17714;SDS011;8977;50.902;4.314;2023-12-22T05:23:21;23.63;;;4.63;;
17714;SDS011;8977;50.902;4.314;2023-12-22T05:25:48;17.30;;;4.53;;
17714;SDS011;8977;50.902;4.314;2023-12-22T05:28:16;19.03;;;4.50;;
17714;SDS011;8977;50.902;4.314;2023-12-22T05:30:45;18.37;;;4.70;;
17714;SDS011;8977;50.902;4.314;2023-12-22T05:33:12;26.53;;;5.30;;
17714;SDS011;8977;50.902;4.314;2023-12-22T05:35:39;21.20;;;4.63;;
17714;SDS011;8977;50.902;4.314;2023-12-22T05:38:06;16.30;;;4.60;;
17714;SDS011;8977;50.902;4.314;2023-12-22T05:40:33;16.83;;;3.97;;
17714;SDS011;8977;50.902;4.314;2023-12-22T05:43:00;17.30;;;5.00;;
17714;SDS011;8977;50.902;4.314;2023-12-22T05:45:27;13.80;;;4.10;;
17714;SDS011;8977;50.902;4.314;2023-12-22T05:47:55;18.07;;;4.17;;
17714;SDS011;8977;50.902;4.314;2023-12-22T05:50:23;18.03;;;4.00;;
17714;SDS011;8977;50.902;4.314;2023-12-22T05:52:50;20.80;;;3.87;;
17714;SDS011;8977;50.902;4.314;2023-12-22T05:55:17;20.70;;;5.13;;
17714;SDS011;8977;50.902;4.314;2023-12-22T05:57:44;25.63;;;4.47;;
17714;SDS011;8977;50.902;4.314;2023-12-22T06:00:11;17.07;;;4.30;;
17714;SDS011;8977;50.902;4.314;2023-12-22T06:02:40;14.67;;;3.63;;
17714;SDS011;8977;50.902;4.314;2023-12-22T06:05:09;16.70;;;3.90;;
17714;SDS011;8977;50.902;4.314;2023-12-22T06:07:36;16.43;;;4.03;;
17714;SDS011;8977;50.902;4.314;2023-12-22T06:10:03;18.17;;;4.07;;
17714;SDS011;8977;50.902;4.314;2023-12-22T06:12:30;15.20;;;3.77;;
17714;SDS011;8977;50.902;4.314;2023-12-22T06:14:57;14.80;;;3.87;;
17714;SDS011;8977;50.902;4.314;2023-12-22T06:17:24;18.67;;;4.07;;
17714;SDS011;8977;50.902;4.314;2023-12-22T06:19:51;16.13;;;3.57;;
17714;SDS011;8977;50.902;4.314;2023-12-22T06:22:19;15.60;;;3.10;;
17714;SDS011;8977;50.902;4.314;2023-12-22T06:24:48;16.27;;;3.47;;
17714;SDS011;8977;50.902;4.314;2023-12-22T06:27:15;13.03;;;3.17;;
17714;SDS011;8977;50.902;4.314;2023-12-22T06:29:42;12.47;;;3.63;;
17714;SDS011;8977;50.902;4.314;2023-12-22T06:32:08;16.17;;;3.33;;
17714;SDS011;8977;50.902;4.314;2023-12-22T06:34:35;13.87;;;3.10;;
17714;SDS011;8977;50.902;4.314;2023-12-22T06:37:03;15.87;;;2.80;;
17714;SDS011;8977;50.902;4.314;2023-12-22T06:39:31;10.80;;;3.17;;
17714;SDS011;8977;50.902;4.314;2023-12-22T06:41:58;10.57;;;3.50;;
17714;SDS011;8977;50.902;4.314;2023-12-22T06:44:25;11.87;;;3.07;;
17714;SDS011;8977;50.902;4.314;2023-12-22T06:46:52;12.37;;;2.70;;
17714;SDS011;8977;50.902;4.314;2023-12-22T06:49:19;10.57;;;2.70;;
17714;SDS011;8977;50.902;4.314;2023-12-22T06:51:46;12.83;;;3.33;;
17714;SDS011;8977;50.902;4.314;2023-12-22T06:54:12;10.23;;;2.90;;
17714;SDS011;8977;50.902;4.314;2023-12-22T06:56:41;8.40;;;2.57;;
17714;SDS011;8977;50.902;4.314;2023-12-22T06:59:08;7.23;;;2.30;;
17714;SDS011;8977;50.902;4.314;2023-12-22T07:01:37;8.27;;;2.10;;
17714;SDS011;8977;50.902;4.314;2023-12-22T07:04:04;8.07;;;2.10;;
17714;SDS011;8977;50.902;4.314;2023-12-22T07:06:32;10.53;;;2.30;;
17714;SDS011;8977;50.902;4.314;2023-12-22T07:11:57;7.73;;;1.70;;
17714;SDS011;8977;50.902;4.314;2023-12-22T07:14:24;6.33;;;1.83;;
17714;SDS011;8977;50.902;4.314;2023-12-22T07:16:54;11.37;;;2.70;;
17714;SDS011;8977;50.902;4.314;2023-12-22T07:19:23;7.63;;;2.10;;
17714;SDS011;8977;50.902;4.314;2023-12-22T07:21:50;10.53;;;2.53;;
17714;SDS011;8977;50.902;4.314;2023-12-22T07:24:17;7.13;;;1.90;;
17714;SDS011;8977;50.902;4.314;2023-12-22T07:26:45;7.03;;;1.90;;
17714;SDS011;8977;50.902;4.314;2023-12-22T07:29:13;7.97;;;2.00;;
17714;SDS011;8977;50.902;4.314;2023-12-22T07:31:40;10.43;;;2.80;;
17714;SDS011;8977;50.902;4.314;2023-12-22T07:34:07;5.57;;;2.17;;
17714;SDS011;8977;50.902;4.314;2023-12-22T07:36:34;5.60;;;1.83;;
17714;SDS011;8977;50.902;4.314;2023-12-22T07:39:01;4.87;;;1.80;;
17714;SDS011;8977;50.902;4.314;2023-12-22T07:41:28;6.00;;;2.43;;
17714;SDS011;8977;50.902;4.314;2023-12-22T07:43:55;6.90;;;2.20;;
17714;SDS011;8977;50.902;4.314;2023-12-22T07:46:23;5.90;;;1.87;;
17714;SDS011;8977;50.902;4.314;2023-12-22T07:48:50;3.00;;;1.60;;
17714;SDS011;8977;50.902;4.314;2023-12-22T07:51:17;5.53;;;1.73;;
17714;SDS011;8977;50.902;4.314;2023-12-22T07:53:44;4.27;;;1.83;;
17714;SDS011;8977;50.902;4.314;2023-12-22T07:56:11;5.20;;;1.73;;
17714;SDS011;8977;50.902;4.314;2023-12-22T07:58:38;3.33;;;1.57;;
17714;SDS011;8977;50.902;4.314;2023-12-22T08:01:05;4.37;;;1.30;;
17714;SDS011;8977;50.902;4.314;2023-12-22T08:03:33;2.43;;;1.40;;
17714;SDS011;8977;50.902;4.314;2023-12-22T08:06:02;4.13;;;1.47;;
17714;SDS011;8977;50.902;4.314;2023-12-22T08:08:30;2.40;;;1.20;;
17714;SDS011;8977;50.902;4.314;2023-12-22T08:10:58;3.37;;;1.53;;
17714;SDS011;8977;50.902;4.314;2023-12-22T08:13:25;4.63;;;1.67;;
17714;SDS011;8977;50.902;4.314;2023-12-22T08:15:52;3.60;;;1.53;;
17714;SDS011;8977;50.902;4.314;2023-12-22T08:18:19;2.97;;;1.97;;
17714;SDS011;8977;50.902;4.314;2023-12-22T08:20:48;2.93;;;1.50;;
17714;SDS011;8977;50.902;4.314;2023-12-22T08:23:14;2.80;;;2.03;;
17714;SDS011;8977;50.902;4.314;2023-12-22T08:25:41;3.40;;;1.90;;
17714;SDS011;8977;50.902;4.314;2023-12-22T08:28:08;4.13;;;2.00;;
17714;SDS011;8977;50.902;4.314;2023-12-22T08:30:37;3.53;;;1.83;;
17714;SDS011;8977;50.902;4.314;2023-12-22T08:33:04;5.27;;;2.50;;
17714;SDS011;8977;50.902;4.314;2023-12-22T08:35:31;2.67;;;2.07;;
17714;SDS011;8977;50.902;4.314;2023-12-22T08:37:59;3.20;;;2.20;;
17714;SDS011;8977;50.902;4.314;2023-12-22T08:40:26;4.73;;;2.33;;
17714;SDS011;8977;50.902;4.314;2023-12-22T08:42:53;5.00;;;2.67;;
17714;SDS011;8977;50.902;4.314;2023-12-22T08:45:24;4.17;;;2.50;;
17714;SDS011;8977;50.902;4.314;2023-12-22T08:47:53;6.23;;;2.80;;
17714;SDS011;8977;50.902;4.314;2023-12-22T08:50:20;4.97;;;2.80;;
17714;SDS011;8977;50.902;4.314;2023-12-22T08:52:47;4.10;;;3.20;;
17714;SDS011;8977;50.902;4.314;2023-12-22T08:55:15;5.17;;;2.60;;
17714;SDS011;8977;50.902;4.314;2023-12-22T08:57:42;5.23;;;3.03;;
17714;SDS011;8977;50.902;4.314;2023-12-22T09:00:10;6.97;;;3.10;;
17714;SDS011;8977;50.902;4.314;2023-12-22T09:02:37;5.07;;;2.80;;
17714;SDS011;8977;50.902;4.314;2023-12-22T09:05:04;6.73;;;3.03;;
17714;SDS011;8977;50.902;4.314;2023-12-22T09:07:32;6.03;;;3.00;;
17714;SDS011;8977;50.902;4.314;2023-12-22T09:09:59;6.37;;;2.70;;
17714;SDS011;8977;50.902;4.314;2023-12-22T09:12:27;7.37;;;2.90;;
17714;SDS011;8977;50.902;4.314;2023-12-22T09:14:55;4.13;;;2.30;;
17714;SDS011;8977;50.902;4.314;2023-12-22T09:17:25;6.20;;;3.07;;
17714;SDS011;8977;50.902;4.314;2023-12-22T09:19:52;7.27;;;2.73;;
17714;SDS011;8977;50.902;4.314;2023-12-22T09:22:20;4.80;;;2.27;;
17714;SDS011;8977;50.902;4.314;2023-12-22T09:24:47;4.83;;;2.40;;
17714;SDS011;8977;50.902;4.314;2023-12-22T09:27:15;3.63;;;1.90;;
17714;SDS011;8977;50.902;4.314;2023-12-22T09:29:43;7.57;;;2.03;;
17714;SDS011;8977;50.902;4.314;2023-12-22T09:32:10;4.13;;;1.40;;
17714;SDS011;8977;50.902;4.314;2023-12-22T09:34:37;5.87;;;1.90;;
17714;SDS011;8977;50.902;4.314;2023-12-22T09:37:04;6.00;;;1.90;;
17714;SDS011;8977;50.902;4.314;2023-12-22T09:39:31;4.90;;;1.70;;
17714;SDS011;8977;50.902;4.314;2023-12-22T09:41:58;7.43;;;1.67;;
17714;SDS011;8977;50.902;4.314;2023-12-22T09:44:24;5.07;;;1.60;;
17714;SDS011;8977;50.902;4.314;2023-12-22T09:46:56;5.13;;;1.43;;
17714;SDS011;8977;50.902;4.314;2023-12-22T09:49:24;2.83;;;1.20;;
17714;SDS011;8977;50.902;4.314;2023-12-22T09:51:51;2.57;;;1.17;;
17714;SDS011;8977;50.902;4.314;2023-12-22T09:54:20;3.90;;;1.30;;
17714;SDS011;8977;50.902;4.314;2023-12-22T09:56:47;5.87;;;1.63;;
17714;SDS011;8977;50.902;4.314;2023-12-22T09:59:16;2.90;;;1.07;;
17714;SDS011;8977;50.902;4.314;2023-12-22T10:01:45;3.63;;;1.10;;
17714;SDS011;8977;50.902;4.314;2023-12-22T10:04:17;4.47;;;1.10;;
17714;SDS011;8977;50.902;4.314;2023-12-22T10:06:45;3.53;;;1.20;;
17714;SDS011;8977;50.902;4.314;2023-12-22T10:09:13;3.20;;;0.93;;
17714;SDS011;8977;50.902;4.314;2023-12-22T10:11:42;5.60;;;1.10;;
17714;SDS011;8977;50.902;4.314;2023-12-22T10:14:10;2.50;;;0.90;;
17714;SDS011;8977;50.902;4.314;2023-12-22T10:16:45;2.43;;;1.10;;
17714;SDS011;8977;50.902;4.314;2023-12-22T10:19:12;2.67;;;1.07;;
17714;SDS011;8977;50.902;4.314;2023-12-22T10:21:41;3.67;;;1.00;;
17714;SDS011;8977;50.902;4.314;2023-12-22T10:24:09;2.10;;;1.00;;
17714;SDS011;8977;50.902;4.314;2023-12-22T10:27:08;5.63;;;1.27;;
17714;SDS011;8977;50.902;4.314;2023-12-22T10:29:35;3.00;;;1.00;;
17714;SDS011;8977;50.902;4.314;2023-12-22T10:32:03;3.97;;;1.47;;
17714;SDS011;8977;50.902;4.314;2023-12-22T10:34:31;3.47;;;1.20;;
17714;SDS011;8977;50.902;4.314;2023-12-22T10:37:00;3.43;;;1.20;;
17714;SDS011;8977;50.902;4.314;2023-12-22T10:39:27;3.23;;;1.57;;
17714;SDS011;8977;50.902;4.314;2023-12-22T10:41:55;4.23;;;1.33;;
17714;SDS011;8977;50.902;4.314;2023-12-22T10:44:23;1.90;;;1.20;;
17714;SDS011;8977;50.902;4.314;2023-12-22T10:46:50;1.60;;;1.50;;
17714;SDS011;8977;50.902;4.314;2023-12-22T10:49:18;4.53;;;1.60;;
17714;SDS011;8977;50.902;4.314;2023-12-22T10:51:45;3.50;;;1.50;;
17714;SDS011;8977;50.902;4.314;2023-12-22T10:54:13;3.30;;;1.30;;
17714;SDS011;8977;50.902;4.314;2023-12-22T10:56:40;1.87;;;1.20;;
17714;SDS011;8977;50.902;4.314;2023-12-22T10:59:08;3.13;;;1.20;;
17714;SDS011;8977;50.902;4.314;2023-12-22T11:01:36;2.57;;;0.80;;
17714;SDS011;8977;50.902;4.314;2023-12-22T11:04:05;2.80;;;1.00;;
17714;SDS011;8977;50.902;4.314;2023-12-22T11:06:34;3.03;;;1.07;;
17714;SDS011;8977;50.902;4.314;2023-12-22T11:09:02;3.13;;;0.90;;
17714;SDS011;8977;50.902;4.314;2023-12-22T11:11:34;5.90;;;1.00;;
17714;SDS011;8977;50.902;4.314;2023-12-22T11:14:01;1.33;;;0.90;;
17714;SDS011;8977;50.902;4.314;2023-12-22T11:16:29;1.93;;;0.93;;
17714;SDS011;8977;50.902;4.314;2023-12-22T11:18:57;2.07;;;0.80;;
17714;SDS011;8977;50.902;4.314;2023-12-22T11:21:26;2.47;;;0.80;;
17714;SDS011;8977;50.902;4.314;2023-12-22T11:23:53;2.03;;;0.90;;
17714;SDS011;8977;50.902;4.314;2023-12-22T11:26:22;2.77;;;1.00;;
17714;SDS011;8977;50.902;4.314;2023-12-22T11:28:51;2.03;;;0.70;;
17714;SDS011;8977;50.902;4.314;2023-12-22T11:31:19;3.03;;;1.00;;
17714;SDS011;8977;50.902;4.314;2023-12-22T11:33:46;0.90;;;0.70;;
17714;SDS011;8977;50.902;4.314;2023-12-22T11:36:14;2.27;;;1.10;;
17714;SDS011;8977;50.902;4.314;2023-12-22T11:38:42;3.23;;;1.10;;
17714;SDS011;8977;50.902;4.314;2023-12-22T11:41:12;2.40;;;0.80;;
17714;SDS011;8977;50.902;4.314;2023-12-22T11:43:43;3.03;;;0.80;;
17714;SDS011;8977;50.902;4.314;2023-12-22T11:46:13;2.97;;;1.00;;
17714;SDS011;8977;50.902;4.314;2023-12-22T11:48:46;2.77;;;1.07;;
17714;SDS011;8977;50.902;4.314;2023-12-22T11:51:14;2.27;;;0.80;;
17714;SDS011;8977;50.902;4.314;2023-12-22T11:53:41;3.20;;;0.77;;
17714;SDS011;8977;50.902;4.314;2023-12-22T11:56:09;3.60;;;1.10;;
17714;SDS011;8977;50.902;4.314;2023-12-22T11:58:38;2.03;;;0.90;;
17714;SDS011;8977;50.902;4.314;2023-12-22T12:01:07;1.60;;;0.80;;
17714;SDS011;8977;50.902;4.314;2023-12-22T12:03:41;1.60;;;0.90;;
17714;SDS011;8977;50.902;4.314;2023-12-22T12:06:15;1.43;;;0.70;;
17714;SDS011;8977;50.902;4.314;2023-12-22T12:08:43;2.47;;;0.80;;
17714;SDS011;8977;50.902;4.314;2023-12-22T12:11:10;3.38;;;1.10;;
17714;SDS011;8977;50.902;4.314;2023-12-22T12:13:39;2.77;;;1.07;;
17714;SDS011;8977;50.902;4.314;2023-12-22T12:16:10;3.10;;;0.80;;
17714;SDS011;8977;50.902;4.314;2023-12-22T12:18:37;3.33;;;1.40;;
17714;SDS011;8977;50.902;4.314;2023-12-22T12:21:07;4.97;;;0.97;;
17714;SDS011;8977;50.902;4.314;2023-12-22T12:23:34;4.07;;;0.83;;
17714;SDS011;8977;50.902;4.314;2023-12-22T12:26:02;2.87;;;0.90;;
17714;SDS011;8977;50.902;4.314;2023-12-22T12:28:30;2.20;;;1.10;;
17714;SDS011;8977;50.902;4.314;2023-12-22T12:30:58;4.03;;;1.03;;
17714;SDS011;8977;50.902;4.314;2023-12-22T12:33:26;3.90;;;1.30;;
17714;SDS011;8977;50.902;4.314;2023-12-22T12:35:53;2.00;;;1.07;;
17714;SDS011;8977;50.902;4.314;2023-12-22T12:38:28;2.20;;;1.00;;
17714;SDS011;8977;50.902;4.314;2023-12-22T12:41:09;3.67;;;1.00;;
17714;SDS011;8977;50.902;4.314;2023-12-22T12:43:40;3.37;;;1.10;;
17714;SDS011;8977;50.902;4.314;2023-12-22T12:46:08;6.93;;;1.17;;
17714;SDS011;8977;50.902;4.314;2023-12-22T12:48:35;5.30;;;1.20;;
17714;SDS011;8977;50.902;4.314;2023-12-22T12:51:03;5.17;;;1.40;;
17714;SDS011;8977;50.902;4.314;2023-12-22T12:53:32;2.50;;;1.00;;
17714;SDS011;8977;50.902;4.314;2023-12-22T12:56:03;4.10;;;1.10;;
17714;SDS011;8977;50.902;4.314;2023-12-22T12:58:31;2.60;;;1.20;;
17714;SDS011;8977;50.902;4.314;2023-12-22T13:01:06;2.73;;;0.87;;
17714;SDS011;8977;50.902;4.314;2023-12-22T13:03:50;2.90;;;1.20;;
17714;SDS011;8977;50.902;4.314;2023-12-22T13:06:18;3.17;;;1.10;;
17714;SDS011;8977;50.902;4.314;2023-12-22T13:08:48;3.57;;;1.30;;
17714;SDS011;8977;50.902;4.314;2023-12-22T13:11:16;4.90;;;1.70;;
17714;SDS011;8977;50.902;4.314;2023-12-22T13:13:46;5.87;;;1.80;;
17714;SDS011;8977;50.902;4.314;2023-12-22T13:16:13;2.43;;;0.90;;
17714;SDS011;8977;50.902;4.314;2023-12-22T13:18:43;2.17;;;0.80;;
17714;SDS011;8977;50.902;4.314;2023-12-22T13:21:10;7.17;;;1.23;;
17714;SDS011;8977;50.902;4.314;2023-12-22T13:23:37;5.07;;;1.27;;
17714;SDS011;8977;50.902;4.314;2023-12-22T13:26:05;2.13;;;0.87;;
17714;SDS011;8977;50.902;4.314;2023-12-22T13:28:32;4.70;;;1.20;;
17714;SDS011;8977;50.902;4.314;2023-12-22T13:30:59;2.03;;;0.90;;
17714;SDS011;8977;50.902;4.314;2023-12-22T13:33:26;1.97;;;0.90;;
17714;SDS011;8977;50.902;4.314;2023-12-22T13:35:56;6.37;;;1.77;;
17714;SDS011;8977;50.902;4.314;2023-12-22T13:38:23;3.10;;;1.30;;
17714;SDS011;8977;50.902;4.314;2023-12-22T13:40:50;3.70;;;1.10;;
17714;SDS011;8977;50.902;4.314;2023-12-22T13:43:18;2.30;;;1.00;;
17714;SDS011;8977;50.902;4.314;2023-12-22T13:45:49;7.10;;;1.00;;
17714;SDS011;8977;50.902;4.314;2023-12-22T13:48:16;3.23;;;0.80;;
17714;SDS011;8977;50.902;4.314;2023-12-22T13:50:46;3.67;;;1.10;;
17714;SDS011;8977;50.902;4.314;2023-12-22T13:53:22;3.57;;;1.10;;
17714;SDS011;8977;50.902;4.314;2023-12-22T13:55:53;3.53;;;0.93;;
17714;SDS011;8977;50.902;4.314;2023-12-22T13:58:22;5.23;;;1.07;;
17714;SDS011;8977;50.902;4.314;2023-12-22T14:00:49;3.20;;;1.20;;
17714;SDS011;8977;50.902;4.314;2023-12-22T14:03:16;4.43;;;1.20;;
17714;SDS011;8977;50.902;4.314;2023-12-22T14:05:47;3.90;;;0.90;;
17714;SDS011;8977;50.902;4.314;2023-12-22T14:08:14;3.83;;;1.33;;
17714;SDS011;8977;50.902;4.314;2023-12-22T14:10:44;2.77;;;0.80;;
17714;SDS011;8977;50.902;4.314;2023-12-22T14:13:12;4.23;;;1.10;;
17714;SDS011;8977;50.902;4.314;2023-12-22T14:15:40;3.00;;;1.13;;
17714;SDS011;8977;50.902;4.314;2023-12-22T14:18:07;2.23;;;0.80;;
17714;SDS011;8977;50.902;4.314;2023-12-22T14:20:35;2.80;;;0.97;;
17714;SDS011;8977;50.902;4.314;2023-12-22T14:23:01;2.87;;;0.80;;
17714;SDS011;8977;50.902;4.314;2023-12-22T14:25:29;3.97;;;1.10;;
17714;SDS011;8977;50.902;4.314;2023-12-22T14:27:57;2.90;;;1.00;;
17714;SDS011;8977;50.902;4.314;2023-12-22T14:30:24;2.00;;;0.87;;
17714;SDS011;8977;50.902;4.314;2023-12-22T14:32:52;3.87;;;1.10;;
17714;SDS011;8977;50.902;4.314;2023-12-22T14:35:20;3.63;;;1.03;;
17714;SDS011;8977;50.902;4.314;2023-12-22T14:37:46;5.93;;;1.00;;
17714;SDS011;8977;50.902;4.314;2023-12-22T14:40:13;2.80;;;1.30;;
17714;SDS011;8977;50.902;4.314;2023-12-22T14:42:40;2.97;;;1.23;;
17714;SDS011;8977;50.902;4.314;2023-12-22T14:45:08;3.97;;;1.10;;
17714;SDS011;8977;50.902;4.314;2023-12-22T14:47:35;2.40;;;1.13;;
17714;SDS011;8977;50.902;4.314;2023-12-22T14:50:04;2.63;;;0.80;;
17714;SDS011;8977;50.902;4.314;2023-12-22T14:52:32;2.83;;;0.90;;
17714;SDS011;8977;50.902;4.314;2023-12-22T14:54:58;4.83;;;1.17;;
17714;SDS011;8977;50.902;4.314;2023-12-22T14:57:26;2.67;;;0.90;;
17714;SDS011;8977;50.902;4.314;2023-12-22T14:59:54;3.43;;;1.13;;
17714;SDS011;8977;50.902;4.314;2023-12-22T15:02:20;4.13;;;0.90;;
17714;SDS011;8977;50.902;4.314;2023-12-22T15:04:47;4.47;;;0.97;;